Time;durP1;ratioP1;P1;durP2;ratioP2;P2;SDS_P1;SDS_P2;PMS_P1;PMS_P2;Temp;Humidity;BMP_temperature;BMP_pressure;BME280_temperature;BME280_humidity;BME280_pressure;Samples;Min_cycle;Max_cycle;Signal;HPM_P1;HPM_P2
2021/06/22 00:09:57;;;;;;;1.83;0.88;;;20.40;47.70;;;;;;20750183;28;20133;-54
2021/06/22 00:19:59;;;;;;;1.55;0.80;;;20.40;48.10;;;;;;20750565;28;20058;-55
2021/06/22 00:30:00;;;;;;;2.10;1.13;;;20.30;48.20;;;;;;20749953;28;20141;-54
2021/06/22 00:40:03;;;;;;;1.48;0.90;;;20.20;48.30;;;;;;20750277;28;20061;-55
2021/06/22 00:50:06;;;;;;;;;;;20.10;48.50;;;;;;20749247;28;20050;-55
2021/06/22 01:00:10;;;;;;;2.50;0.98;;;19.90;48.80;;;;;;20748442;28;20285;-55
2021/06/22 01:10:12;;;;;;;2.55;1.30;;;19.90;49.10;;;;;;20748102;28;20050;-55
2021/06/22 01:20:15;;;;;;;2.93;1.03;;;19.80;49.30;;;;;;20747593;28;20062;-57
2021/06/22 01:30:17;;;;;;;3.30;0.77;;;19.80;49.70;;;;;;20747315;28;20050;-56
2021/06/22 01:40:30;;;;;;;1.67;0.98;;;19.70;49.80;;;;;;20747051;28;20513;-55
2021/06/22 01:50:40;;;;;;;0.98;0.70;;;19.70;50.00;;;;;;20748506;28;20049;-55
2021/06/22 02:00:52;;;;;;;1.08;0.75;;;19.70;50.10;;;;;;20761689;28;20236;-54
2021/06/22 02:10:54;;;;;;;1.02;0.63;;;19.70;49.50;;;;;;20761407;28;20081;-54
2021/06/22 02:21:11;;;;;;;2.40;0.70;;;19.70;50.10;;;;;;20760094;28;20057;-54
2021/06/22 02:31:19;;;;;;;1.40;0.70;;;19.70;50.00;;;;;;20759171;28;20050;-55
2021/06/22 02:41:27;;;;;;;1.83;0.80;;;19.60;50.30;;;;;;20758230;28;20061;-56
2021/06/22 02:51:31;;;;;;;1.25;0.70;;;19.60;50.50;;;;;;20758043;28;20510;-53
2021/06/22 03:01:33;;;;;;;0.95;0.50;;;19.60;50.60;;;;;;20756767;28;20054;-53
2021/06/22 03:11:36;;;;;;;1.08;0.73;;;19.60;50.70;;;;;;20756098;28;20085;-55
2021/06/22 03:21:42;;;;;;;3.03;0.70;;;19.60;50.80;;;;;;20755090;28;20129;-54
2021/06/22 03:31:47;;;;;;;1.85;0.80;;;19.60;50.50;;;;;;20754006;28;20046;-54
2021/06/22 03:41:54;;;;;;;1.88;0.80;;;19.70;50.40;;;;;;20753912;28;20126;-56
2021/06/22 03:52:01;;;;;;;1.02;0.85;;;19.60;50.30;;;;;;20752967;28;20053;-55
2021/06/22 04:02:07;;;;;;;1.52;0.70;;;19.70;50.20;;;;;;20752263;28;20486;-56
2021/06/22 04:12:14;;;;;;;1.10;0.75;;;19.70;50.40;;;;;;20751696;28;20103;-55
2021/06/22 04:22:18;;;;;;;1.15;0.82;;;19.70;50.20;;;;;;20750133;28;20054;-55
2021/06/22 04:32:22;;;;;;;1.75;0.80;;;19.70;50.40;;;;;;20749860;28;20042;-55
2021/06/22 04:42:24;;;;;;;3.03;0.87;;;19.70;50.30;;;;;;20748747;28;20057;-54
2021/06/22 04:52:36;;;;;;;2.28;0.90;;;19.60;50.40;;;;;;20750033;28;20103;-56
2021/06/22 05:02:40;;;;;;;2.15;1.00;;;19.70;50.50;;;;;;20749085;28;20544;-55
2021/06/22 05:12:43;;;;;;;2.92;1.02;;;19.70;49.80;;;;;;20747459;28;20045;-55
2021/06/22 05:22:46;;;;;;;;;;;19.70;49.60;;;;;;20747738;28;20477;-58
2021/06/22 05:32:48;;;;;;;1.90;1.10;;;19.60;49.50;;;;;;20760111;28;20012;-54
2021/06/22 05:42:51;;;;;;;2.47;1.10;;;19.70;50.00;;;;;;20763088;28;20056;-54
2021/06/22 05:52:55;;;;;;;2.15;1.00;;;19.80;49.80;;;;;;20762728;28;20050;-55
2021/06/22 06:03:15;;;;;;;3.67;1.52;;;19.90;49.80;;;;;;20761241;28;20077;-55
2021/06/22 06:13:35;;;;;;;3.72;1.40;;;19.90;49.40;;;;;;20760776;28;20060;-54
2021/06/22 06:23:42;;;;;;;1.58;0.85;;;20.10;49.60;;;;;;20759885;28;20053;-55
2021/06/22 06:33:50;;;;;;;2.58;1.35;;;20.10;49.20;;;;;;20759081;28;20458;-55
2021/06/22 06:43:57;;;;;;;3.28;1.10;;;20.10;48.90;;;;;;20758105;28;20050;-56
2021/06/22 06:54:07;;;;;;;2.88;1.30;;;20.20;48.70;;;;;;20757730;28;20133;-56
2021/06/22 07:04:13;;;;;;;2.10;1.13;;;20.20;48.90;;;;;;20756541;28;20050;-55
2021/06/22 07:14:20;;;;;;;2.28;1.20;;;20.40;49.80;;;;;;20755752;28;20046;-54
2021/06/22 07:24:22;;;;;;;3.40;1.53;;;20.50;50.20;;;;;;20754951;28;20386;-56
2021/06/22 07:34:27;;;;;;;1.98;1.25;;;21.00;49.50;;;;;;20753989;28;20081;-55
2021/06/22 07:44:31;;;;;;;2.47;1.17;;;21.50;48.60;;;;;;20754182;28;20050;-55
2021/06/22 07:54:36;;;;;;;4.47;1.33;;;22.20;46.50;;;;;;20751860;28;20104;-53
2021/06/22 08:04:41;;;;;;;4.45;1.40;;;22.60;45.40;;;;;;20750895;28;20056;-56
2021/06/22 08:14:44;;;;;;;6.45;1.50;;;22.80;44.40;;;;;;20750906;28;20049;-55
2021/06/22 08:24:47;;;;;;;2.55;1.05;;;23.00;43.80;;;;;;20750153;28;20054;-57
2021/06/22 08:34:51;;;;;;;4.68;1.70;;;23.10;43.00;;;;;;20749942;28;20062;-54
2021/06/22 08:44:56;;;;;;;2.03;1.10;;;23.10;42.40;;;;;;20747226;28;20050;-57
2021/06/22 08:55:00;;;;;;;7.28;1.60;;;23.30;42.40;;;;;;20748177;28;20046;-56
2021/06/22 09:05:06;;;;;;;3.63;1.40;;;23.30;42.80;;;;;;20747405;28;20045;-57
2021/06/22 09:15:26;;;;;;;6.60;1.75;;;23.60;42.60;;;;;;20748321;28;20049;-55
2021/06/22 09:25:27;;;;;;;3.30;1.48;;;23.80;40.70;;;;;;20745638;28;20054;-51
2021/06/22 09:35:29;;;;;;;5.00;1.52;;;23.90;40.90;;;;;;20745830;28;20091;-52
2021/06/22 09:45:32;;;;;;;2.30;1.35;;;24.00;40.80;;;;;;20746514;28;20053;-53
2021/06/22 09:55:35;;;;;;;2.83;0.98;;;24.30;40.40;;;;;;20746869;28;20128;-51
2021/06/22 10:05:51;;;;;;;4.68;1.15;;;24.40;39.60;;;;;;20745577;28;20411;-53
2021/06/22 10:16:21;;;;;;;4.28;1.35;;;24.60;39.50;;;;;;20753051;28;20125;-51
2021/06/22 10:26:27;;;;;;;13.95;1.60;;;24.70;38.60;;;;;;20759496;28;20116;-54
2021/06/22 10:36:36;;;;;;;4.25;1.23;;;24.80;39.00;;;;;;20759874;28;20045;-69
2021/06/22 10:46:40;;;;;;;6.57;1.40;;;25.10;38.00;;;;;;20758916;28;20050;-60
2021/06/22 10:56:42;;;;;;;5.53;1.88;;;25.10;37.10;;;;;;20757066;28;20049;-60
2021/06/22 11:07:00;;;;;;;4.80;1.38;;;25.20;37.10;;;;;;20756481;28;20454;-61
2021/06/22 11:17:02;;;;;;;6.00;1.38;;;25.40;35.40;;;;;;20755764;28;20458;-62
2021/06/22 11:27:05;;;;;;;4.15;1.13;;;25.60;34.60;;;;;;20755440;28;20053;-62
2021/06/22 11:37:06;;;;;;;4.97;1.17;;;25.50;34.40;;;;;;20755225;28;20076;-62
2021/06/22 11:47:30;;;;;;;4.30;1.43;;;25.30;34.30;;;;;;20754413;28;20069;-61
2021/06/22 11:57:34;;;;;;;4.15;0.82;;;25.30;34.40;;;;;;20754112;28;20050;-62
2021/06/22 12:08:05;;;;;;;2.92;1.10;;;25.00;34.60;;;;;;20752582;28;20049;-62
2021/06/22 12:18:09;;;;;;;;;;;24.70;35.70;;;;;;20751982;28;20134;-65
2021/06/22 12:28:13;;;;;;;4.43;1.70;;;24.30;36.10;;;;;;20749959;28;19921;-62
2021/06/22 12:38:18;;;;;;;8.48;2.20;;;24.20;36.40;;;;;;20748644;28;20054;-62
2021/06/22 12:48:25;;;;;;;1.92;1.20;;;24.10;38.20;;;;;;20748975;28;20464;-62
2021/06/22 12:58:44;;;;;;;3.53;1.35;;;23.70;38.90;;;;;;20748903;28;20078;-61
2021/06/22 13:08:46;;;;;;;2.15;1.30;;;23.50;39.60;;;;;;20747879;28;20126;-63
2021/06/22 13:19:02;;;;;;;5.18;2.17;;;23.30;40.70;;;;;;20747301;28;20144;-61
2021/06/22 13:29:04;;;;;;;5.95;1.60;;;23.40;41.20;;;;;;20747805;28;20409;-63
2021/06/22 13:39:11;;;;;;;4.18;1.33;;;23.30;41.30;;;;;;20746741;28;20068;-66
2021/06/22 13:49:14;;;;;;;2.20;1.15;;;23.40;41.40;;;;;;20752656;28;20564;-63
2021/06/22 13:59:16;;;;;;;4.17;1.30;;;23.30;41.40;;;;;;20765464;28;20060;-63
2021/06/22 14:09:18;;;;;;;2.85;1.63;;;23.20;40.90;;;;;;20764271;28;20053;-62
2021/06/22 14:19:20;;;;;;;2.17;1.00;;;23.10;40.60;;;;;;20760943;28;20081;-62
2021/06/22 14:29:21;;;;;;;3.83;1.67;;;23.10;40.50;;;;;;20760621;28;20470;-62
2021/06/22 14:39:23;;;;;;;3.67;1.90;;;23.20;40.10;;;;;;20758776;28;20065;-63
2021/06/22 14:49:26;;;;;;;3.03;1.60;;;23.20;40.70;;;;;;20758211;28;20042;-63
2021/06/22 14:59:28;;;;;;;3.15;1.27;;;23.20;39.90;;;;;;20757148;28;20053;-65
2021/06/22 15:09:30;;;;;;;2.67;1.63;;;23.10;42.00;;;;;;20757686;28;20478;-64
2021/06/22 15:19:32;;;;;;;4.57;1.47;;;22.90;41.10;;;;;;20755673;28;20057;-65
2021/06/22 15:29:34;;;;;;;9.80;3.73;;;22.80;40.50;;;;;;20750167;28;20505;-61
2021/06/22 15:39:36;;;;;;;9.88;4.13;;;22.90;42.20;;;;;;20753030;28;20504;-61
2021/06/22 15:49:38;;;;;;;2.83;1.67;;;23.30;42.50;;;;;;20752520;28;20049;-61
2021/06/22 15:59:40;;;;;;;3.38;1.73;;;23.60;41.50;;;;;;20753109;28;20488;-62
2021/06/22 16:09:42;;;;;;;2.03;1.10;;;23.40;41.40;;;;;;20753922;28;20426;-64
2021/06/22 16:19:44;;;;;;;2.72;1.05;;;23.40;41.60;;;;;;20749870;28;20058;-60
2021/06/22 16:29:46;;;;;;;5.57;1.83;;;23.40;41.90;;;;;;20784772;28;20899;-61
2021/06/22 16:39:48;;;;;;;5.70;0.83;;;23.40;44.30;;;;;;20745053;28;20141;-63
2021/06/22 16:49:51;;;;;;;1.67;0.80;;;22.80;47.40;;;;;;20747122;28;20102;-64
2021/06/22 16:59:52;;;;;;;1.23;0.77;;;22.40;48.60;;;;;;20747646;28;20050;-67
2021/06/22 17:09:54;;;;;;;2.53;1.77;;;21.90;51.00;;;;;;20747814;28;20405;-66
2021/06/22 17:19:56;;;;;;;1.20;0.80;;;21.50;54.60;;;;;;20747081;28;20387;-62
2021/06/22 17:29:57;;;;;;;4.60;1.15;;;21.30;55.90;;;;;;20772659;28;20046;-61
2021/06/22 17:40:00;;;;;;;2.83;0.98;;;20.90;56.00;;;;;;20772738;28;20081;-61
2021/06/22 17:50:02;;;;;;;1.67;0.87;;;20.70;56.20;;;;;;20772993;28;20076;-65
2021/06/22 18:00:05;;;;;;;1.80;0.80;;;20.60;55.60;;;;;;20771233;28;20129;-62
2021/06/22 18:10:09;;;;;;;1.23;0.82;;;20.40;56.70;;;;;;20788346;28;20140;-64
2021/06/22 18:20:13;;;;;;;1.70;1.00;;;20.20;57.60;;;;;;20771330;28;20140;-64
2021/06/22 18:30:16;;;;;;;;;;;19.80;59.90;;;;;;20771068;28;20502;-62
2021/06/22 18:40:19;;;;;;;2.23;1.37;;;19.70;60.30;;;;;;20758862;28;19928;-64
2021/06/22 18:50:22;;;;;;;2.57;1.63;;;19.70;60.40;;;;;;20758488;28;20562;-64
2021/06/22 19:00:23;;;;;;;;;;;19.60;61.50;;;;;;20756409;28;20204;-66
2021/06/22 19:10:25;;;;;;;2.17;1.50;;;19.30;62.20;;;;;;20755563;28;19921;-66
2021/06/22 19:20:26;;;;;;;1.85;1.00;;;19.40;62.10;;;;;;20754355;28;20058;-64
2021/06/22 19:30:29;;;;;;;3.13;1.20;;;19.40;62.60;;;;;;20754276;28;20116;-64
2021/06/22 19:40:30;;;;;;;3.88;2.03;;;19.20;62.90;;;;;;20753148;28;20233;-67
2021/06/22 19:50:33;;;;;;;2.40;1.23;;;19.20;62.70;;;;;;20751598;28;20434;-65
2021/06/22 20:00:34;;;;;;;3.15;1.30;;;19.10;62.00;;;;;;20751174;28;20078;-65
2021/06/22 20:10:36;;;;;;;3.00;1.10;;;19.20;62.10;;;;;;20750903;28;20061;-62
2021/06/22 20:20:38;;;;;;;2.80;1.13;;;19.00;62.60;;;;;;20749481;28;20049;-64
2021/06/22 20:30:40;;;;;;;2.75;1.48;;;19.00;61.90;;;;;;20749129;28;20159;-65
2021/06/22 20:40:42;;;;;;;4.30;1.63;;;18.90;62.70;;;;;;20749164;28;20062;-65
2021/06/22 20:50:44;;;;;;;3.05;1.35;;;18.70;62.70;;;;;;20748146;28;20050;-66
2021/06/22 21:00:47;;;;;;;3.33;1.60;;;18.80;63.00;;;;;;20747746;28;20049;-66
2021/06/22 21:10:50;;;;;;;3.15;2.17;;;18.70;63.10;;;;;;20747243;28;20061;-65
2021/06/22 21:20:54;;;;;;;3.57;2.50;;;18.60;63.00;;;;;;20747591;28;20061;-64
2021/06/22 21:30:55;;;;;;;4.55;2.28;;;18.70;63.50;;;;;;20748011;28;20410;-65
2021/06/22 21:40:58;;;;;;;2.75;2.08;;;18.60;63.40;;;;;;20747278;28;20062;-65
2021/06/22 21:50:59;;;;;;;7.53;2.65;;;18.70;63.10;;;;;;20749341;28;20046;-61
2021/06/22 22:01:00;;;;;;;2.22;1.30;;;18.60;63.50;;;;;;20749031;28;20045;-65
2021/06/22 22:11:02;;;;;;;2.75;2.13;;;18.60;63.20;;;;;;20752787;28;20045;-64
2021/06/22 22:21:03;;;;;;;4.30;1.85;;;18.50;63.50;;;;;;20760698;28;20494;-63
2021/06/22 22:31:04;;;;;;;3.00;1.70;;;18.40;64.10;;;;;;20761300;28;20049;-63
2021/06/22 22:41:06;;;;;;;4.30;1.90;;;18.30;64.50;;;;;;20759850;28;20049;-63
2021/06/22 22:51:07;;;;;;;6.70;3.63;;;18.30;64.50;;;;;;20759496;28;20097;-62
2021/06/22 23:01:08;;;;;;;3.30;2.05;;;18.30;64.50;;;;;;20758467;28;20092;-64
2021/06/22 23:11:10;;;;;;;3.78;2.40;;;18.40;64.50;;;;;;20759065;28;20487;-65
2021/06/22 23:21:11;;;;;;;6.53;3.55;;;18.50;63.90;;;;;;20756637;28;20576;-63
2021/06/22 23:31:14;;;;;;;5.07;2.67;;;18.70;63.20;;;;;;20756168;28;20479;-64
2021/06/22 23:41:15;;;;;;;2.78;1.80;;;18.60;65.80;;;;;;20754607;28;20136;-65
2021/06/22 23:51:16;;;;;;;2.53;0.77;;;18.50;64.60;;;;;;20754095;28;20045;-62
